createdAt,value
2017-05-07T00:03:46.610Z,1004.94
2017-05-07T00:08:43.149Z,1005.00
2017-05-07T00:13:39.191Z,1004.93
2017-05-07T00:18:38.843Z,1005.03
2017-05-07T00:23:33.546Z,1005.05
2017-05-07T00:33:30.520Z,1004.95
2017-05-07T00:38:27.714Z,1004.92
2017-05-07T00:43:25.255Z,1004.99
2017-05-07T00:48:20.579Z,1004.98
2017-05-07T00:53:16.799Z,1004.99
2017-05-07T00:58:14.139Z,1005.02
2017-05-07T01:03:09.484Z,1005.04
2017-05-07T01:08:05.233Z,1005.04
2017-05-07T01:13:01.693Z,1005.03
2017-05-07T01:17:57.141Z,1005.02
2017-05-07T01:22:53.763Z,1005.02
2017-05-07T01:27:49.773Z,1005.03
2017-05-07T01:32:45.388Z,1004.98
2017-05-07T01:37:42.317Z,1005.11
2017-05-07T01:42:41.112Z,1005.12
2017-05-07T01:47:36.729Z,1005.15
2017-05-07T01:52:32.668Z,1005.24
2017-05-07T01:57:28.869Z,1005.21
2017-05-07T02:07:28.581Z,1005.19
2017-05-07T02:17:28.416Z,1005.15
2017-05-07T02:22:24.188Z,1005.12
2017-05-07T02:27:20.470Z,1005.12
2017-05-07T02:32:17.333Z,1005.08
2017-05-07T02:37:12.716Z,1005.13
2017-05-07T02:42:09.296Z,1005.12
2017-05-07T02:47:05.361Z,1005.13
2017-05-07T02:52:02.365Z,1005.18
2017-05-07T02:56:57.831Z,1005.27
2017-05-07T03:01:54.221Z,1005.23
2017-05-07T03:06:49.926Z,1005.19
2017-05-07T03:11:45.678Z,1005.26
2017-05-07T03:16:42.104Z,1005.21
2017-05-07T03:21:38.675Z,1005.05
2017-05-07T03:26:34.616Z,1005.11
2017-05-07T03:31:30.763Z,1005.20
2017-05-07T03:36:27.219Z,1005.13
2017-05-07T03:41:24.862Z,1005.19
2017-05-07T03:46:20.248Z,1005.18
2017-05-07T03:51:19.463Z,1005.16
2017-05-07T03:56:17.228Z,1005.21
2017-05-07T04:01:13.709Z,1005.25
2017-05-07T04:06:09.383Z,1005.15
2017-05-07T04:11:05.678Z,1005.14
2017-05-07T04:16:01.221Z,1005.19
2017-05-07T04:20:58.244Z,1005.25
2017-05-07T04:25:54.462Z,1005.33
2017-05-07T04:30:50.783Z,1005.42
2017-05-07T04:35:47.808Z,1005.32
2017-05-07T04:40:43.244Z,1005.35
2017-05-07T04:45:39.000Z,1005.41
2017-05-07T04:50:35.782Z,1005.39
2017-05-07T04:55:35.981Z,1005.48
2017-05-07T05:05:31.357Z,1005.60
2017-05-07T05:10:28.524Z,1005.66
2017-05-07T05:15:23.905Z,1005.66
2017-05-07T05:20:20.950Z,1005.75
2017-05-07T05:25:16.729Z,1005.74
2017-05-07T05:30:13.948Z,1005.88
2017-05-07T05:35:11.808Z,1005.92
2017-05-07T05:40:07.000Z,1005.94
2017-05-07T05:45:05.541Z,1006.05
2017-05-07T05:50:01.973Z,1006.04
2017-05-07T05:54:57.850Z,1006.14
2017-05-07T05:59:53.770Z,1006.14
2017-05-07T06:04:49.561Z,1006.21
2017-05-07T06:09:45.684Z,1006.09
2017-05-07T06:14:41.645Z,1006.22
2017-05-07T06:19:37.710Z,1006.31
2017-05-07T06:24:34.604Z,1006.33
2017-05-07T06:29:30.020Z,1006.34
2017-05-07T06:34:25.691Z,1006.37
2017-05-07T06:39:22.607Z,1006.46
2017-05-07T06:44:18.629Z,1006.60
2017-05-07T06:49:14.494Z,1006.68
2017-05-07T06:54:10.152Z,1006.62
2017-05-07T06:59:06.491Z,1006.69
2017-05-07T07:04:02.714Z,1006.75
2017-05-07T07:08:58.433Z,1006.88
2017-05-07T07:13:54.152Z,1006.88
2017-05-07T07:18:49.832Z,1006.93
2017-05-07T07:23:45.405Z,1006.91
2017-05-07T07:28:41.649Z,1006.98
2017-05-07T07:33:37.532Z,1007.08
2017-05-07T07:38:34.293Z,1007.08
2017-05-07T07:43:30.149Z,1007.16
2017-05-07T07:48:25.872Z,1007.17
2017-05-07T07:53:22.312Z,1007.17
2017-05-07T07:58:18.757Z,1007.21
2017-05-07T08:03:14.937Z,1007.18
2017-05-07T08:08:12.612Z,1007.26
2017-05-07T08:13:09.850Z,1007.27
2017-05-07T08:18:05.676Z,1007.39
2017-05-07T08:23:01.835Z,1007.41
2017-05-07T08:27:57.953Z,1007.45
2017-05-07T08:32:54.150Z,1007.48
2017-05-07T08:37:50.540Z,1007.53
2017-05-07T08:42:46.754Z,1007.62
2017-05-07T08:47:42.677Z,1007.61
2017-05-07T08:52:38.228Z,1007.65
2017-05-07T08:57:34.116Z,1007.69
2017-05-07T09:02:30.424Z,1007.78
2017-05-07T09:07:26.657Z,1007.83
2017-05-07T09:12:22.528Z,1007.80
2017-05-07T09:17:18.316Z,1007.95
2017-05-07T09:22:15.716Z,1008.01
2017-05-07T09:27:10.780Z,1007.89
2017-05-07T09:32:06.799Z,1007.97
2017-05-07T09:37:03.056Z,1008.09
2017-05-07T09:41:59.592Z,1008.20
2017-05-07T09:46:57.244Z,1008.14
2017-05-07T09:51:55.362Z,1008.14
2017-05-07T09:56:52.779Z,1008.22
2017-05-07T10:01:49.607Z,1008.04
2017-05-07T10:06:45.222Z,1008.05
2017-05-07T10:11:40.602Z,1008.00
2017-05-07T10:16:35.899Z,1008.08
2017-05-07T10:21:32.862Z,1008.04
2017-05-07T10:26:28.541Z,1008.15
2017-05-07T10:31:25.622Z,1008.17
2017-05-07T10:36:21.003Z,1008.18
2017-05-07T10:41:16.423Z,1008.20
2017-05-07T10:46:13.748Z,1008.11
2017-05-07T10:51:09.404Z,1008.17
2017-05-07T10:56:06.308Z,1008.16
2017-05-07T11:01:03.362Z,1008.03
2017-05-07T11:06:00.574Z,1008.02
2017-05-07T11:10:55.313Z,1008.08
2017-05-07T11:15:52.711Z,1008.05
2017-05-07T11:20:47.074Z,1008.06
2017-05-07T11:25:42.402Z,1008.10
2017-05-07T11:30:39.077Z,1008.04
2017-05-07T11:35:35.623Z,1007.98
2017-05-07T11:40:33.841Z,1008.01
2017-05-07T11:45:31.228Z,1007.92
2017-05-07T11:50:24.971Z,1007.97
2017-05-07T11:55:24.914Z,1008.07
2017-05-07T12:00:19.160Z,1007.97
2017-05-07T12:05:14.535Z,1007.95
2017-05-07T12:10:09.620Z,1007.95
2017-05-07T12:15:04.620Z,1007.99
2017-05-07T12:19:59.988Z,1007.91
2017-05-07T12:24:55.516Z,1008.06
2017-05-07T12:29:52.362Z,1008.10
2017-05-07T12:34:47.717Z,1008.09
2017-05-07T12:39:43.417Z,1008.07
2017-05-07T12:44:39.253Z,1008.05
2017-05-07T12:49:34.796Z,1008.04
2017-05-07T12:54:30.734Z,1008.06
2017-05-07T12:59:27.999Z,1008.00
2017-05-07T13:04:23.648Z,1008.00
2017-05-07T13:09:19.928Z,1008.08
2017-05-07T13:14:15.554Z,1007.98
2017-05-07T13:19:12.405Z,1007.99
2017-05-07T13:24:07.040Z,1008.00
2017-05-07T13:29:03.559Z,1007.93
2017-05-07T13:34:00.231Z,1008.01
2017-05-07T13:38:56.151Z,1007.98
2017-05-07T13:43:52.248Z,1008.00
2017-05-07T13:48:47.841Z,1007.97
2017-05-07T13:53:44.026Z,1007.93
2017-05-07T13:58:39.918Z,1008.06
2017-05-07T14:03:35.373Z,1008.05
2017-05-07T14:08:31.463Z,1007.93
2017-05-07T14:13:27.528Z,1007.92
2017-05-07T14:18:23.568Z,1007.93
2017-05-07T14:23:22.635Z,1007.93
2017-05-07T14:28:17.800Z,1007.95
2017-05-07T14:33:13.501Z,1007.97
2017-05-07T14:38:09.192Z,1007.88
2017-05-07T14:43:05.677Z,1007.88
2017-05-07T14:48:01.181Z,1007.96
2017-05-07T14:52:59.492Z,1007.94
2017-05-07T14:58:02.310Z,1007.95
2017-05-07T15:02:59.182Z,1007.95
2017-05-07T15:07:55.219Z,1007.98
2017-05-07T15:12:57.232Z,1007.90
2017-05-07T15:17:52.285Z,1007.98
2017-05-07T15:22:48.233Z,1008.03
2017-05-07T15:27:43.077Z,1008.01
2017-05-07T15:32:38.882Z,1008.15
2017-05-07T15:37:34.451Z,1008.14
2017-05-07T15:42:30.177Z,1008.13
2017-05-07T15:47:26.292Z,1008.17
2017-05-07T15:52:22.184Z,1008.19
2017-05-07T15:57:18.778Z,1008.19
2017-05-07T16:02:15.226Z,1008.20
2017-05-07T16:07:11.423Z,1008.16
2017-05-07T16:12:06.666Z,1008.13
2017-05-07T16:17:06.163Z,1008.25
2017-05-07T16:22:01.058Z,1008.12
2017-05-07T16:26:58.855Z,1008.02
2017-05-07T16:31:53.918Z,1008.18
2017-05-07T16:36:49.831Z,1008.10
2017-05-07T16:41:45.380Z,1008.23
2017-05-07T16:46:41.887Z,1008.04
2017-05-07T16:51:40.147Z,1008.21
2017-05-07T16:56:35.880Z,1008.29
2017-05-07T17:01:33.815Z,1008.31
2017-05-07T17:06:29.315Z,1008.28
2017-05-07T17:11:24.901Z,1008.24
2017-05-07T17:16:20.743Z,1008.40
2017-05-07T17:21:16.977Z,1008.47
2017-05-07T17:26:14.043Z,1008.50
2017-05-07T17:31:09.245Z,1008.47
2017-05-07T17:36:04.919Z,1008.46
2017-05-07T17:41:00.620Z,1008.55
2017-05-07T17:45:56.251Z,1008.50
2017-05-07T17:50:52.519Z,1008.66
2017-05-07T17:56:12.064Z,1008.58
2017-05-07T18:01:04.526Z,1008.60
2017-05-07T18:06:00.982Z,1008.63
2017-05-07T18:10:56.312Z,1008.58
2017-05-07T18:15:55.238Z,1008.61
2017-05-07T18:20:50.195Z,1008.66
2017-05-07T18:25:46.666Z,1008.71
2017-05-07T18:30:43.027Z,1008.69
2017-05-07T18:35:54.804Z,1008.62
2017-05-07T18:40:47.667Z,1008.71
2017-05-07T18:45:43.367Z,1008.82
2017-05-07T18:50:42.371Z,1008.69
2017-05-07T18:55:40.437Z,1008.73
2017-05-07T19:00:34.945Z,1008.78
2017-05-07T19:05:30.792Z,1008.73
2017-05-07T19:10:26.618Z,1008.77
2017-05-07T19:15:23.434Z,1008.88
2017-05-07T19:20:19.396Z,1008.86
2017-05-07T19:25:15.815Z,1008.94
2017-05-07T19:30:12.450Z,1009.02
2017-05-07T19:35:08.001Z,1009.09
2017-05-07T19:40:03.753Z,1009.15
2017-05-07T19:44:59.206Z,1009.17
2017-05-07T19:49:54.903Z,1009.28
2017-05-07T19:54:50.797Z,1009.34
2017-05-07T19:59:47.679Z,1009.32
2017-05-07T20:04:44.499Z,1009.43
2017-05-07T20:09:43.247Z,1009.53
2017-05-07T20:14:47.184Z,1009.54
2017-05-07T20:19:44.261Z,1009.71
2017-05-07T20:24:39.861Z,1009.74
2017-05-07T20:29:36.304Z,1009.76
2017-05-07T20:34:40.950Z,1009.76
2017-05-07T20:39:36.347Z,1009.82
2017-05-07T20:44:34.129Z,1009.78
2017-05-07T20:49:29.444Z,1009.78
2017-05-07T20:54:28.087Z,1009.85
2017-05-07T20:59:23.298Z,1009.86
2017-05-07T21:04:24.670Z,1009.85
2017-05-07T21:09:19.717Z,1009.84
2017-05-07T21:14:22.849Z,1009.90
2017-05-07T21:19:18.973Z,1009.90
2017-05-07T21:24:17.207Z,1010.02
2017-05-07T21:29:12.309Z,1009.97
2017-05-07T21:34:14.929Z,1009.93
2017-05-07T21:39:13.198Z,1010.03
2017-05-07T21:44:07.861Z,1010.08
2017-05-07T21:49:03.826Z,1009.94
2017-05-07T21:54:00.456Z,1009.97
2017-05-07T21:58:55.938Z,1009.97
2017-05-07T22:03:53.275Z,1010.01
2017-05-07T22:08:52.205Z,1010.02
2017-05-07T22:13:49.881Z,1010.08
2017-05-07T22:18:44.719Z,1010.18
2017-05-07T22:23:40.733Z,1010.20
2017-05-07T22:28:36.536Z,1010.22
2017-05-07T22:33:32.948Z,1010.30
2017-05-07T22:38:29.730Z,1010.28
2017-05-07T22:43:25.259Z,1010.36
2017-05-07T22:48:21.062Z,1010.37
2017-05-07T22:53:16.626Z,1010.41
2017-05-07T22:58:12.358Z,1010.46
2017-05-07T23:03:07.824Z,1010.50
2017-05-07T23:08:03.371Z,1010.53
2017-05-07T23:13:00.852Z,1010.57
2017-05-07T23:17:56.167Z,1010.60
2017-05-07T23:22:52.524Z,1010.61
2017-05-07T23:27:48.974Z,1010.66
2017-05-07T23:32:45.287Z,1010.62
2017-05-07T23:37:40.912Z,1010.62
2017-05-07T23:42:36.169Z,1010.73
2017-05-07T23:47:32.551Z,1010.80
2017-05-07T23:52:28.455Z,1010.82
2017-05-07T23:57:26.902Z,1010.86
